Time;durP1;ratioP1;P1;durP2;ratioP2;P2;SDS_P1;SDS_P2;PMS_P1;PMS_P2;Temp;Humidity;BMP_temperature;BMP_pressure;BME280_temperature;BME280_humidity;BME280_pressure;Samples;Min_cycle;Max_cycle;Signal;HPM_P1;HPM_P2
2022/05/10 00:01:01;;;;;;;7.70;4.97;;;12.60;99.90;;;;;;5031533;28;20162;-64
2022/05/10 00:03:45;;;;;;;10.80;5.40;;;12.60;99.90;;;;;;5033524;28;20041;-64
2022/05/10 00:06:10;;;;;;;11.13;4.95;;;12.60;99.90;;;;;;5032289;28;20060;-65
2022/05/10 00:08:44;;;;;;;11.00;5.38;;;12.50;99.90;;;;;;5028244;28;20137;-64
2022/05/10 00:11:10;;;;;;;8.75;4.32;;;12.50;99.90;;;;;;5023165;28;20049;-64
2022/05/10 00:13:37;;;;;;;9.38;5.25;;;12.50;99.90;;;;;;5031571;28;20111;-64
2022/05/10 00:16:04;;;;;;;6.95;5.13;;;12.50;99.90;;;;;;5032549;28;20056;-65
2022/05/10 00:18:30;;;;;;;12.20;4.85;;;12.40;99.90;;;;;;5034461;28;20060;-64
2022/05/10 00:20:56;;;;;;;10.52;5.13;;;12.40;99.90;;;;;;5032723;28;20128;-64
2022/05/10 00:23:22;;;;;;;8.05;5.25;;;12.40;99.90;;;;;;5035147;28;20136;-65
2022/05/10 00:25:47;;;;;;;9.15;4.53;;;12.40;99.90;;;;;;5032203;28;20132;-64
2022/05/10 00:28:13;;;;;;;11.32;5.30;;;12.30;99.90;;;;;;5029863;28;20053;-65
2022/05/10 00:30:39;;;;;;;9.20;5.13;;;12.30;99.90;;;;;;5034293;28;20045;-65
2022/05/10 00:33:05;;;;;;;7.80;5.18;;;12.30;99.90;;;;;;5033273;28;20132;-64
2022/05/10 00:35:33;;;;;;;6.82;5.07;;;12.30;99.90;;;;;;5033692;28;20080;-65
2022/05/10 00:38:00;;;;;;;7.97;5.18;;;12.20;99.90;;;;;;5033906;28;20389;-65
2022/05/10 00:40:32;;;;;;;6.80;4.85;;;12.20;99.90;;;;;;5034061;28;20111;-64
2022/05/10 00:43:36;;;;;;;7.18;5.05;;;12.20;99.90;;;;;;5029555;28;20054;-65
2022/05/10 00:46:05;;;;;;;6.57;4.88;;;12.20;99.90;;;;;;5026615;28;20045;-64
2022/05/10 00:48:52;;;;;;;10.60;5.22;;;12.10;99.90;;;;;;5033569;28;20128;-64
2022/05/10 00:51:33;;;;;;;7.82;5.00;;;12.10;99.90;;;;;;5034260;28;20543;-65
2022/05/10 00:54:17;;;;;;;8.48;4.97;;;12.20;99.90;;;;;;5032347;28;20054;-64
2022/05/10 00:56:56;;;;;;;11.02;5.53;;;12.20;99.90;;;;;;5031695;28;20524;-65
2022/05/10 00:59:28;;;;;;;8.85;4.47;;;12.20;99.90;;;;;;5033962;28;20084;-64
2022/05/10 01:01:57;;;;;;;;;;;12.10;99.90;;;;;;5030994;28;20071;-64
2022/05/10 01:04:44;;;;;;;8.60;5.20;;;12.10;99.90;;;;;;5033220;28;19921;-64
2022/05/10 01:07:26;;;;;;;9.35;5.10;;;12.10;99.90;;;;;;5030888;28;20049;-65
2022/05/10 01:10:07;;;;;;;13.68;5.25;;;12.10;99.90;;;;;;5033592;28;20049;-64
2022/05/10 01:12:48;;;;;;;11.63;5.20;;;12.00;99.90;;;;;;5033569;28;20142;-64
2022/05/10 01:15:22;;;;;;;8.65;5.30;;;12.10;99.90;;;;;;5025001;28;20124;-65
2022/05/10 01:17:50;;;;;;;9.73;5.18;;;12.00;99.90;;;;;;5030878;28;20084;-64
2022/05/10 01:20:19;;;;;;;8.02;4.93;;;12.00;99.90;;;;;;5031909;28;20075;-65
2022/05/10 01:23:09;;;;;;;7.47;4.90;;;12.00;99.90;;;;;;5032931;28;20065;-64
2022/05/10 01:25:49;;;;;;;7.05;4.97;;;12.00;99.90;;;;;;5032994;28;20076;-65
2022/05/10 01:28:24;;;;;;;9.27;5.95;;;12.00;99.90;;;;;;5029711;28;20069;-65
2022/05/10 01:30:50;;;;;;;9.77;5.75;;;12.00;99.90;;;;;;5032419;28;20095;-65
2022/05/10 01:33:30;;;;;;;9.98;5.55;;;12.00;99.90;;;;;;5031540;28;20466;-64
2022/05/10 01:36:07;;;;;;;7.63;5.55;;;12.00;99.90;;;;;;5032591;28;20057;-64
2022/05/10 01:38:37;;;;;;;10.25;5.20;;;12.00;99.90;;;;;;5034544;28;20057;-64
2022/05/10 01:41:30;;;;;;;11.07;5.78;;;12.00;99.90;;;;;;5032356;28;20418;-65
2022/05/10 01:44:14;;;;;;;9.68;4.95;;;11.90;99.90;;;;;;5032657;28;20057;-65
2022/05/10 01:46:40;;;;;;;9.05;5.18;;;11.90;99.90;;;;;;5030690;28;20055;-65
2022/05/10 01:49:15;;;;;;;8.07;5.47;;;11.90;99.90;;;;;;5031770;28;20049;-64
2022/05/10 01:51:51;;;;;;;7.47;5.63;;;12.00;99.90;;;;;;5031523;28;20057;-64
2022/05/10 01:54:41;;;;;;;10.38;5.57;;;11.90;99.90;;;;;;5034153;28;20057;-65
2022/05/10 01:57:13;;;;;;;7.20;5.70;;;11.90;99.90;;;;;;5030601;28;20056;-64
2022/05/10 01:59:45;;;;;;;9.68;6.15;;;11.90;99.90;;;;;;5027618;28;20053;-64
2022/05/10 02:02:12;;;;;;;10.48;6.15;;;11.90;99.90;;;;;;5029498;28;20046;-64
2022/05/10 02:04:40;;;;;;;8.77;6.90;;;11.90;99.90;;;;;;5032357;28;20149;-65
2022/05/10 02:07:17;;;;;;;7.45;5.43;;;11.90;99.90;;;;;;5031171;28;20136;-64
2022/05/10 02:09:51;;;;;;;7.82;5.88;;;11.90;99.90;;;;;;5033173;28;20053;-65
2022/05/10 02:12:26;;;;;;;11.45;6.47;;;11.90;99.90;;;;;;5030460;28;20064;-65
2022/05/10 02:15:06;;;;;;;11.80;6.55;;;11.90;99.90;;;;;;5014671;28;20049;-64
2022/05/10 02:17:41;;;;;;;13.85;6.13;;;11.90;99.90;;;;;;5032489;28;20054;-65
2022/05/10 02:20:07;;;;;;;10.90;6.68;;;11.90;99.90;;;;;;5030435;28;20100;-64
2022/05/10 02:22:51;;;;;;;10.02;7.18;;;11.90;99.90;;;;;;5027798;28;20087;-64
2022/05/10 02:25:38;;;;;;;8.48;6.45;;;11.90;99.90;;;;;;5031071;28;20057;-64
2022/05/10 02:28:41;;;;;;;10.38;7.47;;;12.00;99.90;;;;;;5029965;28;20118;-65
2022/05/10 02:31:14;;;;;;;11.05;7.13;;;11.90;99.90;;;;;;5031281;28;20057;-64
2022/05/10 02:33:42;;;;;;;10.75;6.85;;;11.90;99.90;;;;;;5026964;28;20111;-65
2022/05/10 02:36:08;;;;;;;9.07;6.90;;;11.90;99.90;;;;;;5031098;28;20057;-64
2022/05/10 02:38:37;;;;;;;11.18;7.22;;;11.90;99.90;;;;;;5026742;28;20061;-65
2022/05/10 02:41:09;;;;;;;12.57;7.88;;;11.90;99.90;;;;;;5030663;28;20045;-65
2022/05/10 02:43:58;;;;;;;10.85;7.90;;;11.90;99.90;;;;;;5044336;28;20081;-65
2022/05/10 02:46:24;;;;;;;13.50;7.65;;;11.90;99.90;;;;;;5015031;28;20080;-65
2022/05/10 02:48:50;;;;;;;11.38;8.30;;;12.00;99.90;;;;;;5030519;28;20133;-65
2022/05/10 02:51:17;;;;;;;13.75;7.93;;;12.00;99.90;;;;;;5030871;28;20423;-65
2022/05/10 02:53:43;;;;;;;13.93;8.57;;;12.00;99.90;;;;;;5030243;28;20053;-65
2022/05/10 02:56:12;;;;;;;13.40;7.85;;;12.00;99.90;;;;;;5032470;28;20053;-65
2022/05/10 02:59:03;;;;;;;12.85;8.50;;;11.90;99.90;;;;;;5028321;28;20458;-64
2022/05/10 03:01:43;;;;;;;13.07;8.20;;;12.00;99.90;;;;;;5026136;28;20132;-65
2022/05/10 03:04:12;;;;;;;12.93;8.60;;;12.00;99.90;;;;;;5030889;28;20053;-64
2022/05/10 03:06:39;;;;;;;12.38;8.15;;;12.00;99.90;;;;;;5026241;28;20151;-64
2022/05/10 03:09:06;;;;;;;12.07;8.43;;;12.00;99.90;;;;;;5030783;28;20106;-64
2022/05/10 03:11:33;;;;;;;11.70;8.73;;;12.00;99.90;;;;;;5030344;28;20058;-63
2022/05/10 03:13:59;;;;;;;15.55;9.05;;;12.10;99.90;;;;;;5030149;28;20056;-63
2022/05/10 03:16:25;;;;;;;17.15;9.25;;;12.10;99.90;;;;;;5028344;28;20383;-64
2022/05/10 03:18:53;;;;;;;13.73;8.80;;;12.20;99.90;;;;;;5030612;28;20056;-65
2022/05/10 03:21:19;;;;;;;10.77;8.52;;;12.10;99.90;;;;;;5030556;28;20053;-64
2022/05/10 03:23:45;;;;;;;13.70;9.57;;;12.10;99.90;;;;;;5030277;28;20056;-64
2022/05/10 03:26:13;;;;;;;15.57;9.48;;;12.10;99.90;;;;;;5030268;28;20053;-64
2022/05/10 03:28:39;;;;;;;15.73;9.00;;;12.20;99.90;;;;;;5031752;28;20053;-65
2022/05/10 03:31:06;;;;;;;16.05;9.82;;;12.20;99.90;;;;;;5031410;28;20064;-65
2022/05/10 03:33:33;;;;;;;16.70;10.50;;;12.20;99.90;;;;;;5030886;28;20060;-64
2022/05/10 03:35:59;;;;;;;16.17;10.30;;;12.20;99.90;;;;;;5030045;28;20041;-65
2022/05/10 03:38:24;;;;;;;15.30;9.85;;;12.30;99.90;;;;;;5029878;28;20513;-63
2022/05/10 03:40:50;;;;;;;13.23;10.02;;;12.30;99.90;;;;;;5029856;28;20110;-64
2022/05/10 03:43:15;;;;;;;15.15;10.18;;;12.30;99.90;;;;;;5021061;28;20050;-65
2022/05/10 03:45:41;;;;;;;13.65;10.32;;;12.30;99.90;;;;;;5020827;28;20095;-64
2022/05/10 03:48:07;;;;;;;15.55;10.40;;;12.30;99.90;;;;;;5023532;28;20049;-65
2022/05/10 03:50:34;;;;;;;17.10;10.45;;;12.30;99.90;;;;;;5029462;28;20088;-63
2022/05/10 03:53:00;;;;;;;14.60;9.88;;;12.30;99.90;;;;;;5027178;28;20540;-64
2022/05/10 03:55:28;;;;;;;12.10;10.07;;;12.30;99.90;;;;;;5032234;28;20061;-64
2022/05/10 03:57:54;;;;;;;15.43;10.10;;;12.30;99.90;;;;;;5025099;28;20056;-65
2022/05/10 04:00:23;;;;;;;18.52;10.80;;;12.30;99.90;;;;;;5025924;28;20374;-64
2022/05/10 04:02:49;;;;;;;16.38;11.05;;;12.30;99.90;;;;;;5028620;28;20527;-65
2022/05/10 04:05:16;;;;;;;14.90;10.55;;;12.30;99.90;;;;;;5029863;28;20474;-65
2022/05/10 04:07:42;;;;;;;14.73;10.32;;;12.30;99.90;;;;;;5026032;28;20061;-65
2022/05/10 04:10:10;;;;;;;15.60;11.05;;;12.30;99.90;;;;;;5030557;28;20084;-64
2022/05/10 04:12:36;;;;;;;21.38;10.98;;;12.30;99.90;;;;;;5027005;28;20076;-65
2022/05/10 04:15:03;;;;;;;19.67;10.75;;;12.40;99.90;;;;;;5032235;28;20149;-65
2022/05/10 04:17:29;;;;;;;17.38;11.10;;;12.40;99.90;;;;;;5028960;28;20068;-64
2022/05/10 04:19:55;;;;;;;18.42;10.63;;;12.40;99.90;;;;;;5030122;28;20128;-64
2022/05/10 04:22:20;;;;;;;15.57;11.20;;;12.40;99.90;;;;;;5030287;28;20060;-64
2022/05/10 04:24:47;;;;;;;16.70;10.93;;;12.40;99.90;;;;;;5029715;28;20049;-64
2022/05/10 04:27:12;;;;;;;19.60;11.20;;;12.40;99.90;;;;;;5025838;28;20077;-65
2022/05/10 04:29:38;;;;;;;15.93;11.38;;;12.40;99.90;;;;;;5027688;28;20092;-64
2022/05/10 04:32:07;;;;;;;18.75;10.88;;;12.40;99.90;;;;;;5028024;28;20091;-64
2022/05/10 04:34:32;;;;;;;16.00;11.50;;;12.50;99.90;;;;;;5026357;28;20049;-64
2022/05/10 04:36:58;;;;;;;14.38;10.55;;;12.50;99.90;;;;;;5030598;28;20103;-64
2022/05/10 04:39:24;;;;;;;16.52;11.02;;;12.50;99.90;;;;;;5028238;28;20057;-64
2022/05/10 04:41:52;;;;;;;16.38;11.65;;;12.50;99.90;;;;;;5032786;28;20041;-64
2022/05/10 04:44:18;;;;;;;18.70;11.05;;;12.50;99.90;;;;;;5030806;28;20107;-64
2022/05/10 04:46:44;;;;;;;16.13;11.23;;;12.60;99.90;;;;;;5033320;28;20489;-64
2022/05/10 04:49:13;;;;;;;14.00;10.38;;;12.60;99.90;;;;;;5031864;28;20103;-65
2022/05/10 04:51:40;;;;;;;15.88;11.05;;;12.70;99.90;;;;;;5033294;28;20458;-65
2022/05/10 04:54:06;;;;;;;18.23;11.20;;;12.70;99.90;;;;;;5031424;28;20486;-65
2022/05/10 04:56:32;;;;;;;13.38;11.35;;;12.80;99.90;;;;;;5033984;28;20060;-64
2022/05/10 04:58:58;;;;;;;13.38;10.85;;;12.80;99.90;;;;;;5027496;28;20057;-65
2022/05/10 05:01:27;;;;;;;15.57;10.65;;;12.90;99.90;;;;;;5030594;28;20056;-65
2022/05/10 05:03:55;;;;;;;22.95;11.13;;;12.90;99.90;;;;;;5034092;28;20076;-65
2022/05/10 05:06:23;;;;;;;15.88;10.25;;;12.90;99.90;;;;;;5029037;28;20555;-64
2022/05/10 05:08:49;;;;;;;15.75;11.55;;;13.00;99.90;;;;;;5030305;28;20059;-65
2022/05/10 05:11:14;;;;;;;15.70;11.52;;;13.00;99.90;;;;;;5029511;28;20417;-64
2022/05/10 05:13:40;;;;;;;17.65;10.85;;;13.10;99.90;;;;;;5034644;28;20058;-64
2022/05/10 05:16:06;;;;;;;16.67;11.60;;;13.10;99.90;;;;;;5029335;28;20053;-64
2022/05/10 05:18:32;;;;;;;16.88;11.00;;;13.10;99.90;;;;;;5030909;28;20128;-64
2022/05/10 05:20:58;;;;;;;17.05;10.93;;;13.20;99.90;;;;;;5031390;28;20128;-64
2022/05/10 05:23:24;;;;;;;13.55;10.02;;;13.30;99.90;;;;;;5034394;28;20546;-64
2022/05/10 05:25:50;;;;;;;16.90;10.98;;;13.30;99.90;;;;;;5033128;28;20540;-64
2022/05/10 05:28:15;;;;;;;14.40;10.90;;;13.40;99.90;;;;;;5026803;28;20041;-65
2022/05/10 05:30:43;;;;;;;16.75;11.65;;;13.50;99.90;;;;;;5031529;28;20115;-65
2022/05/10 05:33:08;;;;;;;16.15;11.10;;;13.60;99.90;;;;;;5031107;28;20446;-65
2022/05/10 05:35:34;;;;;;;17.88;12.15;;;13.70;99.90;;;;;;5030283;28;20125;-65
2022/05/10 05:38:00;;;;;;;16.50;12.07;;;13.80;99.90;;;;;;5026918;28;20149;-65
2022/05/10 05:40:26;;;;;;;13.82;11.25;;;13.90;99.90;;;;;;5027559;28;20053;-64
2022/05/10 05:42:52;;;;;;;16.35;12.82;;;14.00;99.90;;;;;;5027386;28;20469;-65
2022/05/10 05:45:22;;;;;;;16.08;11.43;;;14.00;99.90;;;;;;5030652;28;20053;-65
2022/05/10 05:47:48;;;;;;;15.13;11.18;;;14.10;99.90;;;;;;5031545;28;20083;-66
2022/05/10 05:50:16;;;;;;;19.73;12.07;;;13.90;99.90;;;;;;5032390;28;20093;-66
2022/05/10 05:52:42;;;;;;;17.30;11.68;;;14.40;99.90;;;;;;5029928;28;20045;-64
2022/05/10 05:55:09;;;;;;;15.02;10.52;;;14.50;99.90;;;;;;5029292;28;20064;-65
2022/05/10 05:57:36;;;;;;;13.15;10.40;;;14.60;99.90;;;;;;5033108;28;20072;-64
2022/05/10 06:00:08;;;;;;;16.88;11.02;;;14.70;99.90;;;;;;5031516;28;20124;-64
2022/05/10 06:02:34;;;;;;;16.38;10.57;;;14.70;99.90;;;;;;5032797;28;20405;-65
2022/05/10 06:05:02;;;;;;;15.23;10.38;;;14.90;99.90;;;;;;5032247;28;20077;-65
2022/05/10 06:07:29;;;;;;;14.10;10.60;;;15.00;99.90;;;;;;5027859;28;20042;-65
2022/05/10 06:09:55;;;;;;;16.63;10.73;;;15.10;99.90;;;;;;5032061;28;20049;-64
2022/05/10 06:12:21;;;;;;;14.63;9.93;;;15.40;99.90;;;;;;5032683;28;20148;-65
2022/05/10 06:14:47;;;;;;;17.60;10.95;;;15.40;99.90;;;;;;5030754;28;20401;-65
2022/05/10 06:17:14;;;;;;;16.08;10.38;;;15.50;99.90;;;;;;5031992;28;20068;-64
2022/05/10 06:19:41;;;;;;;13.38;9.93;;;15.70;99.90;;;;;;5033415;28;20057;-65
2022/05/10 06:22:09;;;;;;;14.57;10.45;;;15.80;99.90;;;;;;5032924;28;20338;-64
2022/05/10 06:24:35;;;;;;;15.20;9.88;;;16.00;99.90;;;;;;5032983;28;20059;-66
2022/05/10 06:27:02;;;;;;;14.52;9.43;;;16.20;99.90;;;;;;5032548;28;20058;-65
2022/05/10 06:29:28;;;;;;;23.10;10.77;;;16.40;99.90;;;;;;5032070;28;20458;-64
2022/05/10 06:31:53;;;;;;;15.48;9.77;;;16.60;99.90;;;;;;5031547;28;20126;-65
2022/05/10 06:34:19;;;;;;;16.83;10.10;;;16.80;99.90;;;;;;5031285;28;20058;-65
2022/05/10 06:36:45;;;;;;;15.52;9.20;;;17.10;99.90;;;;;;5032463;28;20041;-65
2022/05/10 06:39:10;;;;;;;12.63;8.57;;;17.30;99.90;;;;;;5032206;28;20474;-65
2022/05/10 06:41:37;;;;;;;9.50;7.82;;;17.40;99.90;;;;;;5032426;28;20049;-64
2022/05/10 06:44:03;;;;;;;12.02;8.00;;;17.60;99.90;;;;;;5032208;28;20057;-64
2022/05/10 06:46:32;;;;;;;11.35;8.13;;;17.70;99.90;;;;;;5032787;28;20098;-63
2022/05/10 06:48:58;;;;;;;11.02;8.50;;;17.90;99.90;;;;;;5032312;28;20066;-64
2022/05/10 06:51:24;;;;;;;12.57;8.95;;;18.00;99.90;;;;;;5031697;28;20057;-65
2022/05/10 06:53:50;;;;;;;9.30;7.97;;;18.00;99.90;;;;;;5032200;28;20064;-66
2022/05/10 06:56:16;;;;;;;12.02;8.48;;;18.00;99.90;;;;;;5028398;28;20470;-64
2022/05/10 06:58:42;;;;;;;11.48;8.15;;;18.00;99.90;;;;;;5030399;28;20099;-64
2022/05/10 07:01:12;;;;;;;11.18;8.10;;;18.10;99.90;;;;;;5029621;28;20038;-64
2022/05/10 07:03:43;;;;;;;11.50;8.02;;;18.20;99.90;;;;;;5032511;28;20103;-65
2022/05/10 07:06:12;;;;;;;11.82;7.63;;;18.40;99.90;;;;;;5032316;28;20059;-65
2022/05/10 07:08:38;;;;;;;15.10;8.30;;;18.50;99.90;;;;;;5031017;28;20112;-64
2022/05/10 07:11:05;;;;;;;11.55;8.98;;;18.70;99.90;;;;;;5031336;28;20057;-65
2022/05/10 07:13:31;;;;;;;12.98;8.60;;;18.90;99.90;;;;;;5032708;28;20394;-65
2022/05/10 07:15:58;;;;;;;9.93;7.47;;;19.10;99.90;;;;;;5031411;28;20147;-65
2022/05/10 07:18:24;;;;;;;10.10;8.13;;;19.30;99.90;;;;;;5030861;28;20076;-64
2022/05/10 07:20:50;;;;;;;11.43;8.27;;;19.60;99.90;;;;;;5031440;28;20141;-63
2022/05/10 07:23:27;;;;;;;14.93;8.43;;;19.80;99.90;;;;;;5031408;28;20085;-66
2022/05/10 07:25:52;;;;;;;13.68;7.38;;;20.00;99.90;;;;;;5032714;28;20060;-64
2022/05/10 07:28:18;;;;;;;9.07;7.60;;;20.20;99.90;;;;;;5032421;28;20405;-64
2022/05/10 07:30:44;;;;;;;14.05;9.18;;;20.40;99.90;;;;;;5030568;28;20191;-65
2022/05/10 07:33:10;;;;;;;12.38;8.05;;;20.60;99.90;;;;;;5031112;28;20058;-65
2022/05/10 07:38:20;;;;;;;12.02;7.82;;;20.70;99.90;;;;;;5032479;28;20054;-64
2022/05/10 07:40:48;;;;;;;14.55;8.77;;;20.90;99.90;;;;;;5031355;28;20056;-65
2022/05/10 07:43:15;;;;;;;12.95;8.52;;;21.00;99.90;;;;;;5031183;28;20363;-65
2022/05/10 07:45:42;;;;;;;11.45;8.68;;;21.20;99.90;;;;;;5032086;28;20057;-64
2022/05/10 07:48:08;;;;;;;11.57;7.70;;;21.20;99.90;;;;;;5030642;28;20064;-65
2022/05/10 07:50:34;;;;;;;10.30;7.85;;;21.30;99.90;;;;;;5031162;28;20053;-65
2022/05/10 07:53:06;;;;;;;11.43;8.05;;;21.40;99.90;;;;;;5030865;28;20037;-65
2022/05/10 07:55:35;;;;;;;14.30;7.88;;;21.30;99.90;;;;;;5030826;28;20060;-65
2022/05/10 07:58:00;;;;;;;13.68;8.23;;;21.70;99.90;;;;;;5030619;28;20049;-64
2022/05/10 08:00:26;;;;;;;13.65;8.43;;;21.60;99.90;;;;;;5031436;28;20052;-65
2022/05/10 08:02:52;;;;;;;11.38;7.88;;;21.60;99.90;;;;;;5030426;28;20057;-65
2022/05/10 08:05:21;;;;;;;14.27;8.20;;;21.80;99.90;;;;;;5030763;28;20054;-65
2022/05/10 08:07:47;;;;;;;9.27;7.32;;;21.70;99.90;;;;;;5030637;28;20053;-65
2022/05/10 08:10:14;;;;;;;11.07;7.60;;;22.00;99.90;;;;;;5032805;28;20111;-65
2022/05/10 08:12:40;;;;;;;10.65;7.88;;;21.90;99.20;;;;;;5036368;28;20056;-64
2022/05/10 08:15:06;;;;;;;11.23;7.55;;;22.20;98.60;;;;;;5034905;28;20058;-64
2022/05/10 08:17:32;;;;;;;12.90;7.80;;;22.20;99.20;;;;;;5034568;28;20064;-64
2022/05/10 08:19:57;;;;;;;10.95;7.43;;;22.20;98.90;;;;;;5036093;28;20053;-64
2022/05/10 08:22:23;;;;;;;11.05;7.55;;;22.30;96.30;;;;;;5034440;28;20049;-65
2022/05/10 08:24:48;;;;;;;12.93;7.57;;;22.50;95.30;;;;;;5035504;28;20072;-66
2022/05/10 08:27:14;;;;;;;10.48;7.80;;;22.50;94.00;;;;;;5034402;28;20509;-66
2022/05/10 08:29:40;;;;;;;10.05;7.10;;;22.40;92.90;;;;;;5036223;28;20049;-65
2022/05/10 08:32:06;;;;;;;12.75;7.45;;;22.30;93.20;;;;;;5033596;28;20053;-65
2022/05/10 08:34:34;;;;;;;12.18;7.80;;;22.30;94.10;;;;;;5035610;28;20389;-64
2022/05/10 08:37:02;;;;;;;8.73;7.25;;;22.10;93.70;;;;;;5034160;28;20060;-66
2022/05/10 08:39:27;;;;;;;9.73;7.03;;;22.30;95.20;;;;;;5034351;28;20049;-66
2022/05/10 08:41:57;;;;;;;9.60;7.13;;;22.10;95.40;;;;;;5034475;28;20069;-65
2022/05/10 08:44:28;;;;;;;9.05;7.60;;;22.00;95.40;;;;;;5034194;28;20056;-66
2022/05/10 08:47:00;;;;;;;12.00;7.53;;;22.00;96.70;;;;;;5035374;28;20054;-65
2022/05/10 08:50:07;;;;;;;13.23;7.60;;;22.00;96.20;;;;;;5033398;28;20072;-65
2022/05/10 08:52:37;;;;;;;11.23;7.72;;;22.00;94.60;;;;;;5032935;28;20498;-64
2022/05/10 08:55:04;;;;;;;12.00;7.90;;;21.90;96.00;;;;;;5034484;28;20053;-65
2022/05/10 08:57:35;;;;;;;8.65;6.95;;;21.90;96.20;;;;;;5034344;28;20061;-65
2022/05/10 09:00:11;;;;;;;10.60;7.45;;;21.90;97.30;;;;;;5034837;28;20498;-64
2022/05/10 09:02:53;;;;;;;11.88;7.45;;;22.00;93.90;;;;;;5033508;28;20064;-64
2022/05/10 09:05:38;;;;;;;10.52;7.72;;;21.70;95.00;;;;;;5031239;28;20046;-64
2022/05/10 09:08:16;;;;;;;12.63;8.32;;;22.00;93.80;;;;;;5031978;28;20049;-66
2022/05/10 09:10:49;;;;;;;10.02;7.40;;;22.00;94.70;;;;;;5033208;28;20084;-65
2022/05/10 09:13:17;;;;;;;11.00;7.70;;;22.10;93.70;;;;;;5032137;28;20048;-66
2022/05/10 09:15:57;;;;;;;10.45;6.95;;;22.00;91.30;;;;;;5033332;28;20482;-65
2022/05/10 09:18:26;;;;;;;11.50;7.25;;;22.10;89.40;;;;;;5034087;28;20053;-65
2022/05/10 09:21:08;;;;;;;9.43;6.57;;;21.80;93.70;;;;;;5033872;28;20494;-66
2022/05/10 09:23:49;;;;;;;9.48;6.63;;;22.10;92.50;;;;;;5033437;28;20513;-65
2022/05/10 09:26:16;;;;;;;8.30;7.40;;;22.00;91.80;;;;;;5031038;28;20057;-64
2022/05/10 09:28:51;;;;;;;11.23;7.20;;;22.10;94.40;;;;;;5034305;28;20056;-65
2022/05/10 09:37:29;;;;;;;9.35;7.05;;;22.40;92.70;;;;;;5030012;28;20049;-65
2022/05/10 09:39:55;;;;;;;9.70;7.68;;;22.20;91.40;;;;;;5030124;28;20065;-65
2022/05/10 09:42:41;;;;;;;12.10;8.38;;;22.00;93.20;;;;;;5031265;28;20050;-65
2022/05/10 09:45:21;;;;;;;11.38;7.90;;;22.20;93.70;;;;;;5031911;28;20049;-66
2022/05/10 09:48:15;;;;;;;11.65;7.80;;;22.30;88.60;;;;;;5030428;28;20065;-66
2022/05/10 09:50:51;;;;;;;9.52;8.52;;;22.30;86.60;;;;;;5033679;28;20049;-65
2022/05/10 09:53:28;;;;;;;8.45;7.55;;;22.60;88.80;;;;;;5032353;28;20146;-64
2022/05/10 09:56:39;;;;;;;14.20;7.95;;;22.70;82.20;;;;;;5016115;28;20132;-67
2022/05/10 09:59:29;;;;;;;11.35;7.10;;;23.00;81.80;;;;;;5033077;28;20057;-65
2022/05/10 10:01:58;;;;;;;13.27;7.88;;;23.00;79.20;;;;;;5031977;28;20057;-66
2022/05/10 10:04:32;;;;;;;13.27;8.40;;;22.90;80.80;;;;;;5032216;28;20512;-65
2022/05/10 10:07:10;;;;;;;12.05;8.15;;;23.10;78.30;;;;;;5029162;28;20077;-66
2022/05/10 10:09:39;;;;;;;8.38;7.03;;;23.20;75.60;;;;;;5033643;28;20057;-65
2022/05/10 10:12:14;;;;;;;8.70;7.30;;;23.20;77.70;;;;;;5009405;28;20152;-67
2022/05/10 10:14:46;;;;;;;11.35;7.63;;;23.40;78.50;;;;;;5032054;28;20072;-63
2022/05/10 10:17:27;;;;;;;8.75;6.68;;;23.50;73.00;;;;;;5031731;28;20049;-62
2022/05/10 10:20:23;;;;;;;15.88;8.45;;;23.60;74.60;;;;;;5027299;28;20053;-63
2022/05/10 10:22:53;;;;;;;11.50;8.18;;;23.60;73.00;;;;;;5024139;28;20486;-63
2022/05/10 10:25:27;;;;;;;11.30;7.80;;;23.60;70.60;;;;;;5030486;28;20483;-66
2022/05/10 10:28:24;;;;;;;14.85;8.60;;;23.60;72.00;;;;;;5021534;28;20152;-63
2022/05/10 10:30:55;;;;;;;12.98;7.85;;;23.60;73.00;;;;;;5032648;28;20060;-65
2022/05/10 10:33:27;;;;;;;11.53;7.70;;;23.70;75.00;;;;;;5029793;28;20067;-66
2022/05/10 10:36:22;;;;;;;8.35;7.50;;;23.80;76.70;;;;;;5032455;28;20386;-66
2022/05/10 10:39:13;;;;;;;9.65;7.97;;;24.00;77.90;;;;;;5028452;28;20058;-64
2022/05/10 10:42:23;;;;;;;11.43;7.90;;;24.10;73.20;;;;;;5032614;28;20049;-64
2022/05/10 10:44:56;;;;;;;8.95;7.68;;;24.20;74.10;;;;;;5032814;28;20522;-65
2022/05/10 10:47:28;;;;;;;8.75;7.78;;;24.30;74.80;;;;;;5031241;28;20506;-63
2022/05/10 10:49:57;;;;;;;9.23;7.95;;;24.40;74.50;;;;;;5033546;28;20057;-64
2022/05/10 10:52:23;;;;;;;13.05;8.50;;;24.40;73.10;;;;;;5032334;28;20064;-63
2022/05/10 10:54:49;;;;;;;8.90;6.75;;;24.50;72.60;;;;;;5030282;28;20065;-65
2022/05/10 10:57:15;;;;;;;9.40;7.07;;;24.70;70.90;;;;;;5032248;28;20481;-63
2022/05/10 10:59:56;;;;;;;7.70;7.00;;;;;;;;;;5031151;28;20053;-64
2022/05/10 11:02:35;;;;;;;14.57;7.00;;;25.10;83.10;;;;;;5028612;28;20138;-65
2022/05/10 11:05:15;;;;;;;10.18;6.57;;;25.20;82.50;;;;;;5031109;28;20107;-65
2022/05/10 11:08:08;;;;;;;10.45;6.65;;;25.30;83.00;;;;;;5023075;28;20056;-65
2022/05/10 11:11:11;;;;;;;8.05;6.85;;;25.40;84.00;;;;;;5029463;28;20552;-64
2022/05/10 11:13:37;;;;;;;9.15;6.43;;;25.30;83.60;;;;;;5030074;28;20064;-65
2022/05/10 11:16:43;;;;;;;7.70;6.18;;;25.20;85.70;;;;;;5031681;28;20057;-64
2022/05/10 11:19:46;;;;;;;7.75;6.03;;;25.10;83.50;;;;;;5030008;28;20528;-65
2022/05/10 11:22:30;;;;;;;6.20;5.60;;;24.80;81.90;;;;;;5022355;28;20102;-65
2022/05/10 11:25:09;;;;;;;13.52;5.93;;;24.70;86.20;;;;;;5022045;28;20056;-67
2022/05/10 11:28:10;;;;;;;7.22;5.32;;;24.50;84.00;;;;;;5022483;28;20064;-65
2022/05/10 11:31:14;;;;;;;9.23;5.82;;;24.30;83.00;;;;;;5016414;28;20096;-65
2022/05/10 11:33:55;;;;;;;10.48;5.85;;;;;;;;;;5025259;28;20057;-65
2022/05/10 11:36:32;;;;;;;11.90;6.50;;;23.80;79.90;;;;;;5031086;28;20140;-65
2022/05/10 11:39:42;;;;;;;9.65;6.18;;;23.70;81.30;;;;;;5032464;28;20081;-65
2022/05/10 11:42:32;;;;;;;9.52;5.47;;;23.90;79.50;;;;;;5029070;28;20045;-65
2022/05/10 11:45:17;;;;;;;9.52;4.80;;;24.00;77.70;;;;;;5030615;28;20045;-65
2022/05/10 11:48:11;;;;;;;9.07;5.55;;;24.10;77.20;;;;;;5035184;28;20616;-66
2022/05/10 11:53:56;;;;;;;7.93;5.03;;;24.70;74.10;;;;;;5034968;28;20144;-64
2022/05/10 11:56:25;;;;;;;11.30;5.28;;;25.00;73.70;;;;;;5035161;28;20049;-64
2022/05/10 11:58:54;;;;;;;6.10;4.55;;;24.70;73.20;;;;;;5035418;28;20054;-64
2022/05/10 12:01:40;;;;;;;11.45;5.18;;;24.90;72.90;;;;;;5036092;28;20057;-65
2022/05/10 12:04:06;;;;;;;9.15;5.40;;;25.20;72.30;;;;;;5036056;28;20430;-66
2022/05/10 12:06:35;;;;;;;11.68;5.60;;;24.70;72.60;;;;;;5035093;28;20057;-65
2022/05/10 12:09:04;;;;;;;7.72;4.90;;;24.70;72.80;;;;;;5035214;28;20050;-65
2022/05/10 12:11:34;;;;;;;12.90;5.35;;;24.70;73.70;;;;;;5035516;28;20052;-63
2022/05/10 12:22:46;;;;;;;15.88;5.57;;;25.00;71.80;;;;;;5035817;28;20128;-64
2022/05/10 12:25:49;;;;;;;22.10;8.45;;;24.80;70.70;;;;;;5035642;28;20053;-63
2022/05/10 12:28:53;;;;;;;11.85;5.00;;;24.80;72.70;;;;;;5016303;28;20062;-65
2022/05/10 12:31:34;;;;;;;6.75;4.72;;;24.60;73.80;;;;;;5019794;28;20064;-64
2022/05/10 12:34:06;;;;;;;9.15;5.28;;;24.90;72.40;;;;;;5034610;28;20072;-66
2022/05/10 12:36:35;;;;;;;6.93;4.60;;;25.40;72.30;;;;;;5035620;28;20501;-65
2022/05/10 12:39:29;;;;;;;6.15;4.38;;;25.00;72.50;;;;;;5035969;28;20057;-66
2022/05/10 12:42:18;;;;;;;5.97;4.80;;;24.90;70.90;;;;;;5034696;28;20053;-64
2022/05/10 12:44:58;;;;;;;7.57;4.18;;;25.00;70.80;;;;;;5034910;28;20061;-64
2022/05/10 12:47:55;;;;;;;7.28;3.83;;;24.70;70.80;;;;;;5030998;28;20046;-63
2022/05/10 12:50:35;;;;;;;9.90;4.80;;;24.80;72.00;;;;;;5032545;28;20056;-64
2022/05/10 12:53:01;;;;;;;11.02;3.88;;;24.80;71.50;;;;;;5033612;28;20080;-64
2022/05/10 12:55:33;;;;;;;6.53;3.92;;;24.70;72.70;;;;;;5033842;28;20049;-62
2022/05/10 12:58:05;;;;;;;12.07;4.85;;;24.70;72.40;;;;;;5032422;28;20056;-65
2022/05/10 13:00:36;;;;;;;;;;;24.90;71.30;;;;;;5029497;28;20055;-64
2022/05/10 13:03:16;;;;;;;4.65;4.00;;;24.80;71.40;;;;;;5035219;28;20011;-64
2022/05/10 13:06:01;;;;;;;5.45;4.25;;;24.70;72.10;;;;;;5042563;28;20130;-64
2022/05/10 13:08:52;;;;;;;7.78;3.70;;;24.80;71.80;;;;;;5024204;28;20081;-65
2022/05/10 13:11:21;;;;;;;7.13;3.97;;;24.70;71.80;;;;;;5035149;28;20486;-64
2022/05/10 13:13:48;;;;;;;12.75;4.10;;;24.70;72.60;;;;;;5035220;28;20084;-64
2022/05/10 13:16:17;;;;;;;10.38;4.13;;;24.50;72.90;;;;;;5034211;28;20569;-63
2022/05/10 13:18:46;;;;;;;10.30;4.13;;;24.50;73.00;;;;;;5034006;28;20050;-63
2022/05/10 13:21:12;;;;;;;6.53;3.65;;;24.10;73.00;;;;;;5034964;28;20049;-66
2022/05/10 13:23:39;;;;;;;6.78;3.85;;;24.20;74.10;;;;;;5031998;28;20573;-65
2022/05/10 13:26:10;;;;;;;7.22;3.80;;;24.10;74.10;;;;;;5026124;28;20146;-64